Modena, Utah
Current Conditions -  °F | °C
As of 12:53 AM on Monday 26 Jan 2015 (Local Time) from KCDC Reporting Station
Clear Clear  
Wind Chill: 26°   Ceiling: Unl
Heat Index: 31°   Visibility: 10mi
Dew Point: 26°   Wind: 5mph
Humidity: 82%   Direction: 130°SE
Pressure: 30.38"   Gusts: NA
Location:  37.8°N, 113.93°W
Report Text: KCDC 260753Z AUTO 13004KT 10SM CLR M01/M03 A3038 RMK AO2 SLP279 T10061033
Loading
Personal Weather Stations






























Interactive Weather Map New forecast layout! Learn more

10-Day Weather Forecast

Advertisements
Track Severe Weather on mobile